createdAt,value
2019-05-20T00:05:13.432Z,6.80
2019-05-20T00:16:13.314Z,7.20
2019-05-20T00:27:13.193Z,7.80
2019-05-20T00:38:13.060Z,5.80
2019-05-20T00:49:12.938Z,6.10
2019-05-20T01:00:12.873Z,9.70
2019-05-20T01:11:12.809Z,8.20
2019-05-20T01:22:12.574Z,8.00
2019-05-20T01:33:14.213Z,9.00
2019-05-20T01:44:12.336Z,7.90
2019-05-20T01:55:12.202Z,7.20
2019-05-20T02:06:12.082Z,8.40
2019-05-20T02:17:11.957Z,7.80
2019-05-20T02:28:11.833Z,8.80
2019-05-20T02:39:11.905Z,14.20
2019-05-20T02:50:11.616Z,13.10
2019-05-20T03:01:11.468Z,13.60
2019-05-20T03:12:11.343Z,19.70
2019-05-20T03:23:11.227Z,21.80
2019-05-20T03:34:38.644Z,21.30
2019-05-20T03:45:10.985Z,26.00
2019-05-20T03:56:10.924Z,23.10
2019-05-20T04:07:10.747Z,25.00
2019-05-20T04:18:10.609Z,29.00
2019-05-20T04:29:10.505Z,22.90
2019-05-20T04:40:10.368Z,26.40
2019-05-20T04:51:10.311Z,29.30
2019-05-20T05:02:10.119Z,26.60
2019-05-20T05:13:10.047Z,33.10
2019-05-20T05:24:09.929Z,29.00
2019-05-20T05:35:09.754Z,29.90
2019-05-20T05:46:09.720Z,38.80
2019-05-20T05:57:09.510Z,39.00
2019-05-20T06:08:09.396Z,36.60
2019-05-20T06:19:09.276Z,32.90
2019-05-20T06:30:09.242Z,36.60
2019-05-20T06:41:09.062Z,36.40
2019-05-20T06:52:08.897Z,34.40
2019-05-20T07:03:08.811Z,38.20
2019-05-20T07:14:08.697Z,40.10
2019-05-20T07:25:08.543Z,34.00
2019-05-20T07:36:10.104Z,42.70
2019-05-20T07:47:10.926Z,43.00
2019-05-20T07:58:08.164Z,43.00
2019-05-20T08:09:08.051Z,37.20
2019-05-20T08:20:07.921Z,46.00
2019-05-20T08:31:07.846Z,42.20
2019-05-20T08:42:07.688Z,47.50
2019-05-20T08:53:07.557Z,41.60
2019-05-20T09:04:07.436Z,39.90
2019-05-20T09:15:07.422Z,53.60
2019-05-20T09:26:07.189Z,45.20
2019-05-20T09:37:07.139Z,42.30
2019-05-20T09:48:06.963Z,45.20
2019-05-20T09:59:06.821Z,50.70
2019-05-20T10:10:06.698Z,45.30
2019-05-20T10:21:06.577Z,45.90
2019-05-20T10:32:06.454Z,50.10
2019-05-20T10:43:06.358Z,33.70
2019-05-20T10:54:06.222Z,35.70
2019-05-20T11:05:06.099Z,42.50
2019-05-20T11:16:05.992Z,43.40
2019-05-20T11:27:05.844Z,40.30
2019-05-20T11:38:05.723Z,34.60
2019-05-20T11:49:05.601Z,38.50
2019-05-20T12:00:05.492Z,37.30
2019-05-20T12:11:05.376Z,29.90
2019-05-20T12:22:05.253Z,27.00
2019-05-20T12:33:17.734Z,23.90
2019-05-20T12:44:11.750Z,33.90
2019-05-20T12:55:08.662Z,29.80
2019-05-20T13:06:04.767Z,30.70
2019-05-20T13:17:04.635Z,21.40
2019-05-20T13:28:04.560Z,25.80
2019-05-20T13:39:04.400Z,22.80
2019-05-20T13:50:04.268Z,24.10
2019-05-20T14:01:04.170Z,31.50
2019-05-20T14:12:05.019Z,25.00
2019-05-20T14:23:03.970Z,26.20
2019-05-20T14:34:03.809Z,35.20
2019-05-20T14:45:03.656Z,35.70
2019-05-20T14:56:03.539Z,33.80
2019-05-20T15:07:03.416Z,53.20
2019-05-20T15:18:03.295Z,53.30
2019-05-20T15:29:04.221Z,47.90
2019-05-20T15:40:03.082Z,61.10
2019-05-20T15:51:02.926Z,54.50
2019-05-20T16:02:02.803Z,46.30
2019-05-20T16:13:02.680Z,45.50
2019-05-20T16:24:02.555Z,54.50
2019-05-20T16:35:02.942Z,51.90
2019-05-20T16:46:02.321Z,48.90
2019-05-20T16:57:02.185Z,50.20
2019-05-20T17:08:02.130Z,51.80
2019-05-20T17:19:01.938Z,48.30
2019-05-20T17:30:02.010Z,47.00
2019-05-20T17:41:01.715Z,49.80
2019-05-20T17:52:01.802Z,43.90
2019-05-20T18:03:01.484Z,62.80
2019-05-20T18:14:01.332Z,45.90
2019-05-20T18:25:01.201Z,46.70
2019-05-20T18:36:01.082Z,60.70
2019-05-20T18:47:00.969Z,46.40
2019-05-20T18:58:00.853Z,51.50
2019-05-20T19:09:00.744Z,45.50
2019-05-20T19:20:00.607Z,57.30
2019-05-20T19:31:00.502Z,73.20
2019-05-20T19:42:00.375Z,74.40
2019-05-20T19:53:00.286Z,73.50
2019-05-20T20:04:00.117Z,79.10
2019-05-20T20:14:59.983Z,77.80
2019-05-20T20:25:59.859Z,61.40
2019-05-20T20:36:59.787Z,60.20
2019-05-20T20:47:59.612Z,50.60
2019-05-20T20:58:59.482Z,68.30
2019-05-20T21:09:59.354Z,66.20
2019-05-20T21:20:59.227Z,72.80
2019-05-20T21:31:59.098Z,93.90
2019-05-20T21:42:58.965Z,89.00
2019-05-20T21:53:58.844Z,100.60
2019-05-20T22:04:58.713Z,98.50
2019-05-20T22:15:58.610Z,99.50
2019-05-20T22:26:58.488Z,97.20
2019-05-20T22:37:58.363Z,90.40
2019-05-20T22:48:58.245Z,99.40
2019-05-20T22:59:58.139Z,87.90
2019-05-20T23:10:57.987Z,75.10
2019-05-20T23:21:57.870Z,72.20
2019-05-20T23:32:57.754Z,60.90
2019-05-20T23:43:57.616Z,66.10
2019-05-20T23:54:57.496Z,57.90
